Terminal Aerodrome Forecast
Issued by NWS Chicago, IL

Home | Current Version | Previous Version | Text Only | Print | Product List | Glossary Off
Versions: 1 2 3 4 5 6 7 8 9 10 11 12 13 14 15 16 17 18 19 20 21 22 23 24 25

026
FTUS43 KLOT 132342 CCA
TAFRFD
TAF COR
KRFD 132342Z 1400/1424 VRB03KT P6SM SKC
     FM140900 16005KT P6SM OVC120
     FM141200 15012KT P6SM OVC060
     FM141500 15014G18KT 1 1/2SM -SN OVC015
      TEMPO 1416/1418 3/4SM -SN BR
     FM141800 15014G18KT 2SM -SN OVC012
      TEMPO 1418/1421 1SM -SN BR OVC010=

USA.gov is the U.S. government's official web portal to all federal, state and local government web resources and services.